createdAt,value
2017-08-26T00:00:14.861Z,15.92
2017-08-26T00:01:14.860Z,15.74
2017-08-26T00:02:14.843Z,15.74
2017-08-26T00:03:15.167Z,15.75
2017-08-26T00:04:14.840Z,15.71
2017-08-26T00:05:15.160Z,15.7
2017-08-26T00:06:14.836Z,15.62
2017-08-26T00:07:14.823Z,15.65
2017-08-26T00:08:14.821Z,15.6
2017-08-26T00:09:15.145Z,15.51
2017-08-26T00:10:15.147Z,15.56
2017-08-26T00:11:14.814Z,15.49
2017-08-26T00:12:14.800Z,15.45
2017-08-26T00:13:14.847Z,15.52
2017-08-26T00:14:14.819Z,15.41
2017-08-26T00:15:14.461Z,15.47
2017-08-26T00:16:14.467Z,15.41
2017-08-26T00:17:14.776Z,15.43
2017-08-26T00:18:14.447Z,15.34
2017-08-26T00:19:14.794Z,15.34
2017-08-26T00:20:14.444Z,15.31
2017-08-26T00:21:14.784Z,15.3
2017-08-26T00:22:14.783Z,15.38
2017-08-26T00:23:14.424Z,15.41
2017-08-26T00:24:14.763Z,15.23
2017-08-26T00:25:14.418Z,15.2
2017-08-26T00:26:14.430Z,15.2
2017-08-26T00:27:14.410Z,15.22
2017-08-26T00:28:14.412Z,15.15
2017-08-26T00:29:14.418Z,15.23
2017-08-26T00:30:15.049Z,15.18
2017-08-26T00:31:14.742Z,15.08
2017-08-26T00:32:14.404Z,15.08
2017-08-26T00:33:14.406Z,15.13
2017-08-26T00:34:14.710Z,15.15
2017-08-26T00:35:14.727Z,15.2
2017-08-26T00:36:14.704Z,15.1
2017-08-26T00:37:14.693Z,15.16
2017-08-26T00:38:14.369Z,15.08
2017-08-26T00:39:14.353Z,15.13
2017-08-26T00:40:14.349Z,15.16
2017-08-26T00:41:14.683Z,15.13
2017-08-26T00:42:14.349Z,15.1
2017-08-26T00:43:14.663Z,15.12
2017-08-26T00:44:14.688Z,15.08
2017-08-26T00:45:14.676Z,15.16
2017-08-26T00:46:14.986Z,15.02
2017-08-26T00:47:14.644Z,15.08
2017-08-26T00:48:14.660Z,15.1
2017-08-26T00:49:14.636Z,15.08
2017-08-26T00:50:14.647Z,15.05
2017-08-26T00:51:14.634Z,14.98
2017-08-26T00:52:14.310Z,15.02
2017-08-26T00:53:14.287Z,15.07
2017-08-26T00:54:14.631Z,14.97
2017-08-26T00:55:14.297Z,15.05
2017-08-26T00:56:14.607Z,15.07
2017-08-26T00:57:14.604Z,15.01
2017-08-26T00:58:14.614Z,15.01
2017-08-26T00:59:14.588Z,15.04
2017-08-26T01:00:14.585Z,15.12
2017-08-26T01:01:14.582Z,15.15
2017-08-26T01:02:14.577Z,15.1
2017-08-26T01:03:14.573Z,15.13
2017-08-26T01:04:14.608Z,15.23
2017-08-26T01:05:14.558Z,15.18
2017-08-26T01:06:14.237Z,15.2
2017-08-26T01:07:14.879Z,15.25
2017-08-26T01:08:14.555Z,15.18
2017-08-26T01:09:14.222Z,15.26
2017-08-26T01:10:14.225Z,15.3
2017-08-26T01:11:14.554Z,15.25
2017-08-26T01:12:14.200Z,15.27
2017-08-26T01:13:14.520Z,15.27
2017-08-26T01:14:14.189Z,15.25
2017-08-26T01:15:14.210Z,15.31
2017-08-26T01:16:14.507Z,15.23
2017-08-26T01:17:14.178Z,15.26
2017-08-26T01:18:14.500Z,15.3
2017-08-26T01:19:14.494Z,15.3
2017-08-26T01:20:14.164Z,15.27
2017-08-26T01:21:14.484Z,15.25
2017-08-26T01:22:14.151Z,15.33
2017-08-26T01:23:14.154Z,15.3
2017-08-26T01:24:14.484Z,15.31
2017-08-26T01:25:14.470Z,15.26
2017-08-26T01:26:14.461Z,15.27
2017-08-26T01:27:14.462Z,15.34
2017-08-26T01:28:14.456Z,15.34
2017-08-26T01:29:14.120Z,15.31
2017-08-26T01:30:14.130Z,15.3
2017-08-26T01:31:14.450Z,15.27
2017-08-26T01:32:14.108Z,15.3
2017-08-26T01:33:14.759Z,15.31
2017-08-26T01:34:14.428Z,15.34
2017-08-26T01:35:14.420Z,15.37
2017-08-26T01:36:14.415Z,15.34
2017-08-26T01:37:14.085Z,15.2
2017-08-26T01:38:14.419Z,15.27
2017-08-26T01:39:14.739Z,15.27
2017-08-26T01:40:14.405Z,15.26
2017-08-26T01:41:14.066Z,15.26
2017-08-26T01:42:14.424Z,15.27
2017-08-26T01:43:14.385Z,15.3
2017-08-26T01:44:14.080Z,15.38
2017-08-26T01:45:14.375Z,15.31
2017-08-26T01:46:14.043Z,15.34
2017-08-26T01:47:14.394Z,15.3
2017-08-26T01:48:14.033Z,15.34
2017-08-26T01:49:14.685Z,15.41
2017-08-26T01:50:14.368Z,15.38
2017-08-26T01:51:14.017Z,15.41
2017-08-26T01:52:14.354Z,15.44
2017-08-26T01:53:14.007Z,15.43
2017-08-26T01:54:14.022Z,15.52
2017-08-26T01:55:13.999Z,15.55
2017-08-26T01:56:14.657Z,15.59
2017-08-26T01:57:14.318Z,15.53
2017-08-26T01:58:14.648Z,15.58
2017-08-26T01:59:13.982Z,15.55
2017-08-26T02:00:13.976Z,15.67
2017-08-26T02:01:14.103Z,15.62
2017-08-26T02:02:14.335Z,15.67
2017-08-26T02:03:14.025Z,15.55
2017-08-26T02:04:13.974Z,15.56
2017-08-26T02:05:13.956Z,15.58
2017-08-26T02:06:13.952Z,15.63
2017-08-26T02:07:14.282Z,15.67
2017-08-26T02:08:13.943Z,15.6
2017-08-26T02:09:14.287Z,15.65
2017-08-26T02:10:14.261Z,15.71
2017-08-26T02:11:13.924Z,15.71
2017-08-26T02:12:14.276Z,15.77
2017-08-26T02:13:13.920Z,15.75
2017-08-26T02:14:13.916Z,15.74
2017-08-26T02:15:14.245Z,15.77
2017-08-26T02:16:13.906Z,15.74
2017-08-26T02:17:14.229Z,15.92
2017-08-26T02:18:14.239Z,15.88
2017-08-26T02:19:13.890Z,15.92
2017-08-26T02:20:14.580Z,15.84
2017-08-26T02:21:13.883Z,15.81
2017-08-26T02:22:14.205Z,15.89
2017-08-26T02:23:14.225Z,15.84
2017-08-26T02:24:14.219Z,15.88
2017-08-26T02:25:13.866Z,15.86
2017-08-26T02:26:13.879Z,15.89
2017-08-26T02:27:13.876Z,15.83
2017-08-26T02:28:14.196Z,15.86
2017-08-26T02:29:14.184Z,15.88
2017-08-26T02:30:13.850Z,15.84
2017-08-26T02:31:14.167Z,15.95
2017-08-26T02:32:14.189Z,15.95
2017-08-26T02:33:13.831Z,16.02
2017-08-26T02:34:13.828Z,15.93
2017-08-26T02:35:14.150Z,16.04
2017-08-26T02:36:14.145Z,16.1
2017-08-26T02:37:13.822Z,16.04
2017-08-26T02:38:13.824Z,16.08
2017-08-26T02:39:14.131Z,16.04
2017-08-26T02:40:14.126Z,16.06
2017-08-26T02:41:13.817Z,16.06
2017-08-26T02:42:14.121Z,16.11
2017-08-26T02:43:13.800Z,16.16
2017-08-26T02:44:13.789Z,16.25
2017-08-26T02:45:14.110Z,16.22
2017-08-26T02:46:14.120Z,16.22
2017-08-26T02:47:13.774Z,16.17
2017-08-26T02:48:13.789Z,16.22
2017-08-26T02:49:13.765Z,16.21
2017-08-26T02:50:14.086Z,16.22
2017-08-26T02:51:14.084Z,16.25
2017-08-26T02:52:14.432Z,16.29
2017-08-26T02:53:14.081Z,16.25
2017-08-26T02:54:14.095Z,16.25
2017-08-26T02:55:14.073Z,16.25
2017-08-26T02:56:13.733Z,16.25
2017-08-26T02:57:13.731Z,16.26
2017-08-26T02:58:13.744Z,16.27
2017-08-26T02:59:13.726Z,16.18
2017-08-26T03:00:14.062Z,16.18
2017-08-26T03:01:14.048Z,16.32
2017-08-26T03:02:14.390Z,16.27
2017-08-26T03:03:14.381Z,16.27
2017-08-26T03:04:13.722Z,16.25
2017-08-26T03:05:13.698Z,16.34
2017-08-26T03:06:13.695Z,16.3
2017-08-26T03:07:14.021Z,16.33
2017-08-26T03:08:13.709Z,16.26
2017-08-26T03:09:14.013Z,16.36
2017-08-26T03:10:14.009Z,16.4
2017-08-26T03:11:14.026Z,16.33
2017-08-26T03:12:14.000Z,16.3
2017-08-26T03:13:13.672Z,16.33
2017-08-26T03:14:13.705Z,16.34
2017-08-26T03:15:13.986Z,16.32
2017-08-26T03:16:14.342Z,16.3
2017-08-26T03:17:13.664Z,16.37
2017-08-26T03:18:13.656Z,16.3
2017-08-26T03:19:13.969Z,16.32
2017-08-26T03:20:13.640Z,16.47
2017-08-26T03:21:13.978Z,16.33
2017-08-26T03:22:14.291Z,16.39
2017-08-26T03:23:13.954Z,16.4
2017-08-26T03:24:13.996Z,16.45
2017-08-26T03:25:13.634Z,16.47
2017-08-26T03:26:13.616Z,16.37
2017-08-26T03:27:14.284Z,16.37
2017-08-26T03:28:13.937Z,16.45
2017-08-26T03:29:13.605Z,16.42
2017-08-26T03:30:13.929Z,16.48
2017-08-26T03:31:13.940Z,16.51
2017-08-26T03:32:13.595Z,16.47
2017-08-26T03:33:13.590Z,16.54
2017-08-26T03:34:13.582Z,16.45
2017-08-26T03:35:13.599Z,16.47
2017-08-26T03:36:13.913Z,16.49
2017-08-26T03:37:14.249Z,16.49
2017-08-26T03:38:13.894Z,16.45
2017-08-26T03:39:13.909Z,16.42
2017-08-26T03:40:13.557Z,16.44
2017-08-26T03:41:13.553Z,16.47
2017-08-26T03:42:13.554Z,16.44
2017-08-26T03:43:13.877Z,16.51
2017-08-26T03:44:13.554Z,16.49
2017-08-26T03:45:13.559Z,16.47
2017-08-26T03:46:13.534Z,16.45
2017-08-26T03:47:13.540Z,16.42
2017-08-26T03:48:13.880Z,16.47
2017-08-26T03:49:14.180Z,16.54
2017-08-26T03:50:13.851Z,16.49
2017-08-26T03:51:14.173Z,16.45
2017-08-26T03:52:14.175Z,16.52
2017-08-26T03:53:13.512Z,16.54
2017-08-26T03:54:13.838Z,16.44
2017-08-26T03:55:13.838Z,16.45
2017-08-26T03:56:13.499Z,16.54
2017-08-26T03:57:13.821Z,16.44
2017-08-26T03:58:13.492Z,16.51
2017-08-26T03:59:13.813Z,16.51
2017-08-26T04:00:13.839Z,16.49
2017-08-26T04:01:13.809Z,16.52
2017-08-26T04:02:13.804Z,16.49
2017-08-26T04:03:14.138Z,16.51
2017-08-26T04:04:13.804Z,16.48
2017-08-26T04:05:14.118Z,16.45
2017-08-26T04:06:13.468Z,16.49
2017-08-26T04:07:13.818Z,16.48
2017-08-26T04:08:13.780Z,16.54
2017-08-26T04:09:13.449Z,16.51
2017-08-26T04:10:13.460Z,16.47
2017-08-26T04:11:13.439Z,16.44
2017-08-26T04:12:13.447Z,16.44
2017-08-26T04:13:13.446Z,16.49
2017-08-26T04:14:13.431Z,16.51
2017-08-26T04:15:14.097Z,16.54
2017-08-26T04:16:13.421Z,16.62
2017-08-26T04:17:13.436Z,16.54
2017-08-26T04:18:13.758Z,16.48
2017-08-26T04:19:13.762Z,16.52
2017-08-26T04:20:13.410Z,16.58
2017-08-26T04:21:13.421Z,16.49
2017-08-26T04:22:13.402Z,16.52
2017-08-26T04:23:13.731Z,16.52
2017-08-26T04:24:13.719Z,16.59
2017-08-26T04:25:13.392Z,16.59
2017-08-26T04:26:13.420Z,16.55
2017-08-26T04:27:13.719Z,16.62
2017-08-26T04:28:13.714Z,16.63
2017-08-26T04:29:13.728Z,16.69
2017-08-26T04:30:13.414Z,16.66
2017-08-26T04:31:13.701Z,16.55
2017-08-26T04:32:13.691Z,16.59
2017-08-26T04:33:14.032Z,16.59
2017-08-26T04:34:13.362Z,16.49
2017-08-26T04:35:13.368Z,16.48
2017-08-26T04:36:13.676Z,16.45
2017-08-26T04:37:13.350Z,16.45
2017-08-26T04:38:13.382Z,16.45
2017-08-26T04:39:13.667Z,16.42
2017-08-26T04:40:13.335Z,16.39
2017-08-26T04:41:13.658Z,16.33
2017-08-26T04:42:13.326Z,16.32
2017-08-26T04:43:13.989Z,16.32
2017-08-26T04:44:13.667Z,16.29
2017-08-26T04:45:13.331Z,16.29
2017-08-26T04:46:13.969Z,16.29
2017-08-26T04:47:13.321Z,16.29
2017-08-26T04:48:13.637Z,16.34
2017-08-26T04:49:13.628Z,16.3
2017-08-26T04:50:13.644Z,16.34
2017-08-26T04:51:13.641Z,16.27
2017-08-26T04:52:13.291Z,16.27
2017-08-26T04:53:13.624Z,16.27
2017-08-26T04:54:13.633Z,16.36
2017-08-26T04:55:13.608Z,16.3
2017-08-26T04:56:13.274Z,16.4
2017-08-26T04:57:13.279Z,16.3
2017-08-26T04:58:13.315Z,16.32
2017-08-26T04:59:13.274Z,16.32
2017-08-26T05:00:13.260Z,16.3
2017-08-26T05:01:13.254Z,16.36
2017-08-26T05:02:13.275Z,16.34
2017-08-26T05:03:13.906Z,16.33
2017-08-26T05:04:13.571Z,16.4
2017-08-26T05:05:13.565Z,16.33
2017-08-26T05:06:13.237Z,16.34
2017-08-26T05:07:13.559Z,16.33
2017-08-26T05:08:13.577Z,16.4
2017-08-26T05:09:13.225Z,16.25
2017-08-26T05:10:14.652Z,16.37
2017-08-26T05:11:13.545Z,16.34
2017-08-26T05:12:13.540Z,16.32
2017-08-26T05:13:13.558Z,16.22
2017-08-26T05:14:13.201Z,16.3
2017-08-26T05:15:13.204Z,16.33
2017-08-26T05:16:13.521Z,16.29
2017-08-26T05:17:13.524Z,16.29
2017-08-26T05:18:13.193Z,16.33
2017-08-26T05:19:13.714Z,16.3
2017-08-26T05:20:13.510Z,16.3
2017-08-26T05:21:13.178Z,16.26
2017-08-26T05:22:13.519Z,16.33
2017-08-26T05:23:13.168Z,16.32
2017-08-26T05:24:13.165Z,16.27
2017-08-26T05:25:13.512Z,16.26
2017-08-26T05:26:13.154Z,16.27
2017-08-26T05:27:13.154Z,16.33
2017-08-26T05:28:13.494Z,16.27
2017-08-26T05:29:13.485Z,16.37
2017-08-26T05:30:13.138Z,16.34
2017-08-26T05:31:13.487Z,16.27
2017-08-26T05:32:13.790Z,16.36
2017-08-26T05:33:13.457Z,16.36
2017-08-26T05:34:13.793Z,16.42
2017-08-26T05:35:13.451Z,16.39
2017-08-26T05:36:13.462Z,16.48
2017-08-26T05:37:13.114Z,16.52
2017-08-26T05:38:13.459Z,16.54
2017-08-26T05:39:13.104Z,16.63
2017-08-26T05:40:13.105Z,16.49
2017-08-26T05:41:13.099Z,16.59
2017-08-26T05:42:13.418Z,16.66
2017-08-26T05:43:13.746Z,16.67
2017-08-26T05:44:13.086Z,16.67
2017-08-26T05:45:13.435Z,16.69
2017-08-26T05:46:13.428Z,16.69
2017-08-26T05:47:13.076Z,16.72
2017-08-26T05:48:13.426Z,16.77
2017-08-26T05:49:13.395Z,16.73
2017-08-26T05:50:13.398Z,16.85
2017-08-26T05:51:13.057Z,16.91
2017-08-26T05:52:13.389Z,17
2017-08-26T05:53:13.050Z,17.03
2017-08-26T05:54:13.389Z,17
2017-08-26T05:55:13.389Z,16.99
2017-08-26T05:56:13.043Z,17
2017-08-26T05:57:13.699Z,17.03
2017-08-26T05:58:13.364Z,17.1
2017-08-26T05:59:13.365Z,17.13
2017-08-26T06:00:13.355Z,17.25
2017-08-26T06:01:13.355Z,17.2
2017-08-26T06:02:13.350Z,17.21
2017-08-26T06:03:13.349Z,17.17
2017-08-26T06:04:13.014Z,17.25
2017-08-26T06:05:13.009Z,17.21
2017-08-26T06:06:13.003Z,17.2
2017-08-26T06:07:13.014Z,17.2
2017-08-26T06:08:13.329Z,17.2
2017-08-26T06:09:13.334Z,17.25
2017-08-26T06:10:13.322Z,17.1
2017-08-26T06:11:12.992Z,17.17
2017-08-26T06:12:12.985Z,17.09
2017-08-26T06:13:13.316Z,17.07
2017-08-26T06:14:13.309Z,17.09
2017-08-26T06:15:13.302Z,17.09
2017-08-26T06:16:13.644Z,17.1
2017-08-26T06:17:13.297Z,17.05
2017-08-26T06:18:12.976Z,17.07
2017-08-26T06:19:12.960Z,16.99
2017-08-26T06:20:13.285Z,17.03
2017-08-26T06:21:13.296Z,17.07
2017-08-26T06:22:12.953Z,17
2017-08-26T06:23:13.150Z,17.1
2017-08-26T06:24:13.297Z,16.99
2017-08-26T06:25:13.270Z,17.07
2017-08-26T06:26:13.291Z,17.09
2017-08-26T06:27:13.259Z,17.1
2017-08-26T06:28:12.931Z,17.12
2017-08-26T06:29:13.288Z,17.15
2017-08-26T06:30:12.924Z,17.18
2017-08-26T06:31:12.933Z,17.2
2017-08-26T06:32:12.918Z,17.24
2017-08-26T06:33:13.241Z,17.18
2017-08-26T06:34:12.911Z,17.25
2017-08-26T06:35:13.596Z,17.36
2017-08-26T06:36:15.793Z,17.35
2017-08-26T06:37:12.918Z,17.24
2017-08-26T06:38:12.899Z,17.35
2017-08-26T06:39:13.236Z,17.38
2017-08-26T06:40:13.220Z,17.38
2017-08-26T06:41:13.555Z,17.49
2017-08-26T06:42:13.224Z,17.5
2017-08-26T06:43:13.226Z,17.52
2017-08-26T06:44:13.249Z,17.57
2017-08-26T06:45:12.879Z,17.65
2017-08-26T06:46:13.201Z,17.66
2017-08-26T06:47:13.214Z,17.77
2017-08-26T06:48:13.214Z,17.77
2017-08-26T06:49:13.520Z,17.77
2017-08-26T06:50:13.522Z,17.84
2017-08-26T06:51:13.514Z,17.88
2017-08-26T06:52:13.184Z,18.02
2017-08-26T06:53:12.854Z,18.08
2017-08-26T06:54:13.504Z,18.21
2017-08-26T06:55:12.867Z,18.34
2017-08-26T06:56:13.171Z,18.42
2017-08-26T06:57:12.890Z,18.68
2017-08-26T06:58:12.852Z,18.57
2017-08-26T06:59:13.185Z,18.84
2017-08-26T07:00:13.162Z,19.06
2017-08-26T07:01:13.960Z,19.23
2017-08-26T07:02:13.180Z,19.32
2017-08-26T07:03:13.179Z,19.43
2017-08-26T07:04:13.485Z,19.49
2017-08-26T07:05:13.150Z,19.4
2017-08-26T07:06:13.158Z,19.49
2017-08-26T07:07:13.474Z,19.55
2017-08-26T07:08:13.144Z,19.47
2017-08-26T07:09:13.468Z,19.43
2017-08-26T07:10:13.471Z,19.45
2017-08-26T07:11:13.138Z,19.49
2017-08-26T07:12:13.481Z,19.52
2017-08-26T07:13:12.804Z,19.49
2017-08-26T07:14:12.803Z,19.53
2017-08-26T07:15:13.133Z,19.49
2017-08-26T07:16:13.142Z,19.55
2017-08-26T07:17:13.124Z,19.46
2017-08-26T07:18:13.133Z,19.34
2017-08-26T07:19:12.805Z,19.19
2017-08-26T07:20:13.456Z,19.05
2017-08-26T07:21:12.790Z,18.96
2017-08-26T07:22:12.790Z,18.79
2017-08-26T07:23:13.115Z,18.75
2017-08-26T07:24:13.117Z,18.61
2017-08-26T07:25:13.117Z,18.61
2017-08-26T07:26:12.781Z,18.54
2017-08-26T07:27:13.104Z,18.47
2017-08-26T07:28:13.430Z,18.47
2017-08-26T07:29:13.099Z,18.31
2017-08-26T07:30:12.774Z,18.26
2017-08-26T07:31:13.098Z,18.31
2017-08-26T07:32:12.772Z,18.23
2017-08-26T07:33:12.767Z,18.2
2017-08-26T07:34:12.765Z,18.24
2017-08-26T07:35:12.763Z,18.21
2017-08-26T07:36:12.775Z,18.2
2017-08-26T07:37:13.096Z,18.08
2017-08-26T07:38:12.754Z,18.2
2017-08-26T07:39:13.082Z,18.14
2017-08-26T07:40:12.754Z,18.17
2017-08-26T07:41:13.411Z,18.21
2017-08-26T07:42:12.946Z,18.14
2017-08-26T07:43:12.742Z,18.06
2017-08-26T07:44:12.754Z,18.01
2017-08-26T07:45:13.067Z,18.01
2017-08-26T07:46:12.737Z,17.96
2017-08-26T07:47:12.739Z,17.92
2017-08-26T07:48:13.057Z,17.96
2017-08-26T07:49:12.728Z,17.95
2017-08-26T07:50:13.052Z,17.96
2017-08-26T07:51:13.076Z,17.92
2017-08-26T07:52:13.050Z,17.88
2017-08-26T07:53:12.718Z,17.9
2017-08-26T07:54:12.722Z,17.98
2017-08-26T07:55:12.712Z,17.95
2017-08-26T07:56:12.722Z,17.92
2017-08-26T07:57:12.706Z,17.95
2017-08-26T07:58:12.707Z,17.9
2017-08-26T07:59:13.377Z,17.95
2017-08-26T08:00:13.028Z,17.9
2017-08-26T08:01:12.713Z,17.88
2017-08-26T08:02:12.693Z,17.83
2017-08-26T08:03:13.359Z,17.87
2017-08-26T08:04:13.380Z,17.76
2017-08-26T08:05:13.012Z,17.79
2017-08-26T08:06:12.685Z,17.69
2017-08-26T08:07:12.680Z,17.69
2017-08-26T08:08:12.695Z,17.76
2017-08-26T08:09:13.339Z,17.73
2017-08-26T08:10:12.675Z,17.68
2017-08-26T08:11:12.995Z,17.68
2017-08-26T08:12:12.994Z,17.71
2017-08-26T08:13:12.680Z,17.58
2017-08-26T08:14:12.989Z,17.57
2017-08-26T08:15:12.988Z,17.63
2017-08-26T08:16:13.323Z,17.54
2017-08-26T08:17:12.984Z,17.63
2017-08-26T08:18:13.306Z,17.58
2017-08-26T08:19:12.990Z,17.65
2017-08-26T08:20:13.303Z,17.68
2017-08-26T08:21:12.641Z,17.77
2017-08-26T08:22:12.646Z,17.84
2017-08-26T08:23:12.637Z,17.87
2017-08-26T08:24:12.960Z,17.95
2017-08-26T08:25:13.289Z,17.95
2017-08-26T08:26:12.630Z,18.03
2017-08-26T08:27:12.624Z,18.14
2017-08-26T08:28:12.949Z,18.27
2017-08-26T08:29:12.619Z,18.24
2017-08-26T08:30:12.980Z,18.36
2017-08-26T08:31:12.943Z,18.47
2017-08-26T08:32:12.942Z,18.53
2017-08-26T08:33:13.277Z,18.6
2017-08-26T08:34:12.612Z,18.61
2017-08-26T08:35:12.625Z,18.76
2017-08-26T08:36:12.934Z,18.89
2017-08-26T08:37:13.254Z,18.97
2017-08-26T08:38:12.595Z,19.06
2017-08-26T08:39:13.251Z,19.3
2017-08-26T08:40:12.918Z,19.4
2017-08-26T08:41:12.921Z,19.55
2017-08-26T08:42:12.918Z,19.87
2017-08-26T08:43:12.585Z,20.04
2017-08-26T08:44:12.583Z,20.26
2017-08-26T08:45:12.583Z,20.48
2017-08-26T08:46:12.923Z,20.66
2017-08-26T08:47:12.902Z,20.79
2017-08-26T08:48:12.575Z,20.88
2017-08-26T08:49:12.908Z,21.01
2017-08-26T08:50:12.923Z,21.12
2017-08-26T08:51:12.571Z,21.28
2017-08-26T08:52:13.242Z,21.38
2017-08-26T08:53:12.899Z,21.48
2017-08-26T08:54:12.909Z,21.83
2017-08-26T08:55:12.564Z,21.93
2017-08-26T08:56:12.911Z,22.07
2017-08-26T08:57:12.895Z,22.36
2017-08-26T08:58:12.893Z,22.41
2017-08-26T08:59:12.922Z,22.57
2017-08-26T09:00:12.892Z,22.61
2017-08-26T09:01:12.572Z,22.63
2017-08-26T09:02:12.584Z,22.63
2017-08-26T09:03:12.576Z,22.7
2017-08-26T09:04:12.585Z,22.91
2017-08-26T09:05:12.907Z,22.91
2017-08-26T09:06:12.569Z,22.99
2017-08-26T09:07:12.914Z,23.28
2017-08-26T09:08:12.898Z,23.5
2017-08-26T09:09:12.893Z,23.7
2017-08-26T09:10:13.240Z,23.85
2017-08-26T09:11:12.897Z,23.96
2017-08-26T09:12:12.569Z,24
2017-08-26T09:13:12.570Z,24.12
2017-08-26T09:14:12.900Z,24.12
2017-08-26T09:15:13.260Z,24.11
2017-08-26T09:16:12.573Z,24.07
2017-08-26T09:17:12.574Z,24.02
2017-08-26T09:18:13.236Z,23.79
2017-08-26T09:19:12.581Z,23.7
2017-08-26T09:20:12.910Z,23.48
2017-08-26T09:21:12.597Z,23.62
2017-08-26T09:22:12.914Z,23.55
2017-08-26T09:23:12.584Z,23.66
2017-08-26T09:24:13.242Z,23.74
2017-08-26T09:25:12.613Z,23.89
2017-08-26T09:26:12.588Z,23.93
2017-08-26T09:27:12.919Z,23.92
2017-08-26T09:28:12.929Z,23.92
2017-08-26T09:29:12.589Z,23.94
2017-08-26T09:30:12.595Z,24
2017-08-26T09:31:12.597Z,24.03
2017-08-26T09:32:12.598Z,24.17
2017-08-26T09:33:12.938Z,24.15
2017-08-26T09:34:12.931Z,24.29
2017-08-26T09:35:12.610Z,24.3
2017-08-26T09:36:12.938Z,24.27
2017-08-26T09:37:12.935Z,24.33
2017-08-26T09:38:12.608Z,24.34
2017-08-26T09:39:12.613Z,24.22
2017-08-26T09:40:13.269Z,24.15
2017-08-26T09:41:12.939Z,24
2017-08-26T09:42:12.616Z,24.02
2017-08-26T09:43:12.961Z,23.82
2017-08-26T09:44:12.640Z,23.77
2017-08-26T09:45:13.280Z,23.67
2017-08-26T09:46:12.950Z,23.44
2017-08-26T09:47:12.623Z,23.47
2017-08-26T09:48:12.956Z,23.53
2017-08-26T09:49:12.975Z,23.63
2017-08-26T09:50:13.286Z,23.78
2017-08-26T09:51:12.630Z,23.92
2017-08-26T09:52:12.631Z,24.15
2017-08-26T09:53:13.311Z,24.27
2017-08-26T09:54:12.961Z,24.26
2017-08-26T09:55:12.641Z,24.32
2017-08-26T09:56:12.638Z,24.4
2017-08-26T09:57:12.970Z,24.45
2017-08-26T09:58:12.972Z,24.52
2017-08-26T09:59:12.987Z,24.61
2017-08-26T10:00:12.980Z,24.74
2017-08-26T10:01:12.996Z,24.7
2017-08-26T10:02:12.645Z,24.86
2017-08-26T10:03:12.853Z,24.87
2017-08-26T10:04:12.980Z,24.86
2017-08-26T10:05:12.654Z,24.94
2017-08-26T10:06:12.981Z,24.87
2017-08-26T10:07:13.314Z,25.01
2017-08-26T10:08:13.322Z,24.96
2017-08-26T10:09:12.998Z,25.12
2017-08-26T10:10:12.682Z,25.04
2017-08-26T10:11:12.996Z,25.15
2017-08-26T10:12:12.687Z,25.07
2017-08-26T10:13:12.668Z,25.07
2017-08-26T10:14:12.681Z,25.09
2017-08-26T10:15:12.716Z,25.12
2017-08-26T10:16:13.007Z,25.19
2017-08-26T10:17:13.045Z,25.26
2017-08-26T10:18:12.681Z,25.27
2017-08-26T10:19:12.683Z,25.29
2017-08-26T10:20:13.360Z,25.26
2017-08-26T10:21:12.688Z,25.33
2017-08-26T10:22:13.021Z,25.29
2017-08-26T10:23:13.020Z,25.29
2017-08-26T10:24:13.030Z,25.26
2017-08-26T10:25:13.376Z,25.23
2017-08-26T10:26:13.029Z,25.23
2017-08-26T10:27:13.036Z,25.29
2017-08-26T10:28:13.035Z,25.26
2017-08-26T10:29:12.708Z,25.11
2017-08-26T10:30:13.036Z,25.12
2017-08-26T10:31:12.710Z,25.05
2017-08-26T10:32:13.056Z,25.04
2017-08-26T10:33:13.040Z,25.11
2017-08-26T10:34:12.728Z,25.17
2017-08-26T10:35:13.050Z,25.07
2017-08-26T10:36:12.723Z,25.11
2017-08-26T10:37:12.723Z,25.14
2017-08-26T10:38:13.073Z,25.19
2017-08-26T10:39:13.057Z,25.24
2017-08-26T10:40:13.064Z,25.32
2017-08-26T10:41:13.416Z,25.34
2017-08-26T10:42:13.073Z,25.41
2017-08-26T10:43:12.740Z,25.41
2017-08-26T10:44:13.071Z,25.33
2017-08-26T10:45:12.742Z,25.3
2017-08-26T10:46:12.747Z,25.39
2017-08-26T10:47:13.082Z,25.23
2017-08-26T10:48:13.413Z,25.27
2017-08-26T10:49:13.084Z,25.27
2017-08-26T10:50:13.436Z,25.37
2017-08-26T10:51:12.760Z,25.29
2017-08-26T10:52:12.763Z,25.29
2017-08-26T10:53:12.764Z,25.3
2017-08-26T10:54:12.766Z,25.26
2017-08-26T10:55:12.768Z,25.38
2017-08-26T10:56:12.792Z,25.52
2017-08-26T10:57:13.105Z,25.47
2017-08-26T10:58:13.106Z,25.54
2017-08-26T10:59:13.110Z,25.57
2017-08-26T11:00:12.781Z,25.71
2017-08-26T11:01:13.121Z,25.84
2017-08-26T11:02:12.797Z,25.96
2017-08-26T11:03:12.791Z,25.89
2017-08-26T11:04:13.124Z,25.94
2017-08-26T11:05:13.125Z,25.88
2017-08-26T11:06:13.469Z,26.01
2017-08-26T11:07:12.841Z,25.99
2017-08-26T11:08:13.153Z,25.91
2017-08-26T11:09:13.163Z,25.91
2017-08-26T11:10:12.829Z,25.88
2017-08-26T11:11:13.148Z,25.75
2017-08-26T11:12:12.814Z,25.57
2017-08-26T11:13:12.820Z,25.6
2017-08-26T11:14:12.820Z,25.52
2017-08-26T11:15:12.846Z,25.48
2017-08-26T11:16:12.829Z,25.48
2017-08-26T11:17:12.841Z,25.45
2017-08-26T11:18:13.196Z,25.49
2017-08-26T11:19:13.492Z,25.52
2017-08-26T11:20:13.209Z,25.6
2017-08-26T11:21:12.847Z,25.44
2017-08-26T11:22:12.853Z,25.51
2017-08-26T11:23:12.856Z,25.47
2017-08-26T11:24:12.849Z,25.48
2017-08-26T11:25:12.854Z,25.6
2017-08-26T11:26:13.198Z,25.62
2017-08-26T11:27:12.856Z,25.59
2017-08-26T11:28:12.862Z,25.57
2017-08-26T11:29:12.867Z,25.52
2017-08-26T11:30:12.868Z,25.59
2017-08-26T11:31:12.875Z,25.57
2017-08-26T11:32:13.218Z,25.57
2017-08-26T11:33:13.210Z,25.64
2017-08-26T11:34:13.209Z,25.67
2017-08-26T11:35:13.243Z,25.75
2017-08-26T11:36:12.889Z,25.78
2017-08-26T11:37:13.550Z,25.86
2017-08-26T11:38:13.219Z,25.79
2017-08-26T11:39:12.892Z,25.85
2017-08-26T11:40:12.936Z,25.79
2017-08-26T11:41:12.924Z,25.79
2017-08-26T11:42:13.561Z,25.78
2017-08-26T11:43:13.235Z,25.76
2017-08-26T11:44:13.592Z,25.81
2017-08-26T11:45:12.913Z,25.84
2017-08-26T11:46:12.917Z,25.81
2017-08-26T11:47:13.251Z,25.85
2017-08-26T11:48:13.248Z,25.93
2017-08-26T11:49:13.253Z,25.93
2017-08-26T11:50:12.925Z,26
2017-08-26T11:51:13.283Z,25.91
2017-08-26T11:52:13.265Z,26.04
2017-08-26T11:53:12.936Z,26.06
2017-08-26T11:54:12.938Z,26.03
2017-08-26T11:55:12.942Z,26.16
2017-08-26T11:56:13.285Z,26.19
2017-08-26T11:57:12.963Z,26.03
2017-08-26T11:58:12.959Z,26.03
2017-08-26T11:59:13.307Z,26.07
2017-08-26T12:00:12.979Z,26.04
2017-08-26T12:01:13.302Z,26.06
2017-08-26T12:02:12.963Z,26.01
2017-08-26T12:03:13.631Z,26.01
2017-08-26T12:04:12.971Z,26.06
2017-08-26T12:05:12.974Z,26
2017-08-26T12:06:13.309Z,26.03
2017-08-26T12:07:13.328Z,26.01
2017-08-26T12:08:13.642Z,25.91
2017-08-26T12:09:13.333Z,25.89
2017-08-26T12:10:12.991Z,25.82
2017-08-26T12:11:13.346Z,25.93
2017-08-26T12:12:13.330Z,25.89
2017-08-26T12:13:13.330Z,25.89
2017-08-26T12:14:13.349Z,25.94
2017-08-26T12:15:13.338Z,25.99
2017-08-26T12:16:13.688Z,25.89
2017-08-26T12:17:13.345Z,25.99
2017-08-26T12:18:13.344Z,25.91
2017-08-26T12:19:13.353Z,25.94
2017-08-26T12:20:13.025Z,25.96
2017-08-26T12:21:13.686Z,25.91
2017-08-26T12:22:13.357Z,25.93
2017-08-26T12:23:13.380Z,25.93
2017-08-26T12:24:13.038Z,25.97
2017-08-26T12:25:13.367Z,26.03
2017-08-26T12:26:13.043Z,26.07
2017-08-26T12:27:13.714Z,26.04
2017-08-26T12:28:13.399Z,26.03
2017-08-26T12:29:13.383Z,26.01
2017-08-26T12:30:13.059Z,25.94
2017-08-26T12:31:13.061Z,25.93
2017-08-26T12:32:13.063Z,25.89
2017-08-26T12:33:13.072Z,25.88
2017-08-26T12:34:13.105Z,25.91
2017-08-26T12:35:13.406Z,26.03
2017-08-26T12:36:13.081Z,25.94
2017-08-26T12:37:13.096Z,25.99
2017-08-26T12:38:13.083Z,26.01
2017-08-26T12:39:13.107Z,26.15
2017-08-26T12:40:13.428Z,26.06
2017-08-26T12:41:13.418Z,26.01
2017-08-26T12:42:13.095Z,26.12
2017-08-26T12:43:13.100Z,26.17
2017-08-26T12:44:13.145Z,26.15
2017-08-26T12:45:13.440Z,26.19
2017-08-26T12:46:13.440Z,26.19
2017-08-26T12:47:13.115Z,26.17
2017-08-26T12:48:13.448Z,26.22
2017-08-26T12:49:13.774Z,26.3
2017-08-26T12:50:13.122Z,26.24
2017-08-26T12:51:13.456Z,26.11
2017-08-26T12:52:13.473Z,26.19
2017-08-26T12:53:13.474Z,26.2
2017-08-26T12:54:13.808Z,26.09
2017-08-26T12:55:13.479Z,26.03